createdAt,value
2022-09-15T00:02:12.970Z,68.82
2022-09-15T00:04:44.807Z,69.07
2022-09-15T00:07:16.707Z,69.15
2022-09-15T00:09:48.736Z,69.15
2022-09-15T00:12:20.661Z,69.51
2022-09-15T00:14:52.934Z,69.60
2022-09-15T00:17:24.693Z,69.75
2022-09-15T00:19:58.379Z,69.96
2022-09-15T00:22:30.574Z,70.00
2022-09-15T00:25:02.612Z,69.95
2022-09-15T00:27:34.577Z,70.12
2022-09-15T00:30:07.755Z,70.36
2022-09-15T00:32:39.632Z,70.99
2022-09-15T00:35:12.110Z,71.22
2022-09-15T00:37:44.230Z,71.80
2022-09-15T00:40:17.082Z,72.31
2022-09-15T00:42:49.060Z,72.81
2022-09-15T00:45:21.075Z,72.95
2022-09-15T00:47:53.028Z,73.17
2022-09-15T00:50:24.968Z,73.53
2022-09-15T00:52:58.755Z,73.87
2022-09-15T00:55:34.391Z,74.25
2022-09-15T00:58:37.143Z,74.78
2022-09-15T01:01:09.160Z,74.59
2022-09-15T01:03:41.497Z,74.60
2022-09-15T01:06:20.426Z,75.38
2022-09-15T01:09:17.353Z,75.24
2022-09-15T01:11:49.453Z,74.91
2022-09-15T01:14:21.622Z,75.03
2022-09-15T01:17:04.084Z,75.50
2022-09-15T01:19:56.274Z,75.97
2022-09-15T01:22:36.344Z,75.63
2022-09-15T01:25:09.964Z,75.07
2022-09-15T01:28:24.261Z,75.91
2022-09-15T01:31:21.348Z,75.54
2022-09-15T01:34:14.802Z,74.93
2022-09-15T01:36:54.981Z,75.42
2022-09-15T01:39:36.472Z,74.95
2022-09-15T01:42:11.791Z,75.02
2022-09-15T01:45:06.897Z,75.22
2022-09-15T01:47:39.941Z,75.03
2022-09-15T01:50:31.462Z,75.55
2022-09-15T01:53:08.806Z,75.14
2022-09-15T01:55:44.508Z,75.08
2022-09-15T01:58:16.582Z,74.97
2022-09-15T02:00:59.506Z,75.40
2022-09-15T02:03:37.870Z,75.53
2022-09-15T02:06:36.079Z,75.58
2022-09-15T02:09:35.810Z,76.12
2022-09-15T02:12:12.374Z,75.48
2022-09-15T02:14:55.537Z,75.98
2022-09-15T02:17:29.477Z,75.87
2022-09-15T02:20:20.178Z,76.39
2022-09-15T02:22:57.231Z,76.13
2022-09-15T02:25:32.760Z,76.61
2022-09-15T02:28:07.497Z,76.81
2022-09-15T02:30:42.007Z,76.63
2022-09-15T02:33:19.774Z,76.99
2022-09-15T02:35:52.332Z,77.40
2022-09-15T02:38:28.938Z,78.54
2022-09-15T02:41:01.204Z,79.15
2022-09-15T02:43:33.556Z,80.20
2022-09-15T02:46:05.834Z,81.26
2022-09-15T02:48:37.959Z,82.37
2022-09-15T02:51:10.207Z,83.15
2022-09-15T02:53:44.545Z,83.84
2022-09-15T02:56:17.041Z,84.46
2022-09-15T02:58:48.933Z,84.99
2022-09-15T03:01:21.119Z,85.65
2022-09-15T03:03:53.302Z,86.20
2022-09-15T03:06:25.597Z,86.38
2022-09-15T03:08:58.806Z,86.66
2022-09-15T03:11:31.064Z,86.71
2022-09-15T03:14:05.956Z,87.06
2022-09-15T03:16:38.049Z,87.34
2022-09-15T03:19:10.197Z,87.18
2022-09-15T03:21:42.093Z,87.29
2022-09-15T03:24:15.449Z,87.71
2022-09-15T03:26:48.126Z,87.75
2022-09-15T03:29:20.027Z,87.98
2022-09-15T03:31:52.791Z,88.08
2022-09-15T03:34:24.799Z,88.30
2022-09-15T03:36:56.776Z,88.83
2022-09-15T03:39:28.693Z,89.11
2022-09-15T03:42:00.891Z,89.35
2022-09-15T03:44:32.962Z,89.59
2022-09-15T03:47:07.944Z,89.69
2022-09-15T03:49:39.969Z,89.91
2022-09-15T03:52:12.242Z,90.06
2022-09-15T03:54:44.401Z,90.62
2022-09-15T03:57:16.388Z,90.90
2022-09-15T03:59:48.399Z,90.95
2022-09-15T04:02:20.317Z,90.91
2022-09-15T04:04:52.296Z,90.41
2022-09-15T04:07:25.014Z,90.31
2022-09-15T04:09:59.513Z,90.02
2022-09-15T04:12:32.491Z,90.34
2022-09-15T04:15:04.897Z,90.67
2022-09-15T04:17:36.874Z,90.96
2022-09-15T04:20:09.891Z,90.96
2022-09-15T04:22:41.872Z,91.02
2022-09-15T04:25:14.103Z,91.07
2022-09-15T04:27:46.270Z,91.35
2022-09-15T04:30:18.108Z,90.84
2022-09-15T04:32:51.650Z,90.69
2022-09-15T04:35:23.905Z,90.71
2022-09-15T04:37:56.339Z,90.37
2022-09-15T04:40:28.371Z,90.43
2022-09-15T04:43:00.431Z,90.42
2022-09-15T04:45:33.703Z,90.59
2022-09-15T04:48:05.800Z,90.00
2022-09-15T04:50:40.542Z,89.83
2022-09-15T04:53:12.651Z,89.35
2022-09-15T04:55:44.754Z,89.42
2022-09-15T04:58:16.809Z,89.30
2022-09-15T05:00:48.910Z,89.35
2022-09-15T05:03:20.864Z,89.25
2022-09-15T05:05:52.728Z,88.57
2022-09-15T05:08:24.620Z,88.96
2022-09-15T05:11:03.354Z,88.24
2022-09-15T05:13:36.172Z,88.05
2022-09-15T05:16:13.187Z,87.24
2022-09-15T05:18:46.835Z,87.32
2022-09-15T05:21:21.517Z,86.79
2022-09-15T05:23:59.022Z,87.10
2022-09-15T05:26:30.923Z,86.87
2022-09-15T05:29:03.077Z,86.49
2022-09-15T05:31:35.152Z,85.80
2022-09-15T05:34:07.220Z,85.33
2022-09-15T05:36:39.147Z,85.42
2022-09-15T05:39:11.145Z,85.10
2022-09-15T05:41:43.050Z,84.85
2022-09-15T05:44:15.101Z,84.45
2022-09-15T05:46:48.129Z,84.10
2022-09-15T05:49:20.045Z,84.19
2022-09-15T05:51:52.239Z,83.99
2022-09-15T05:54:24.486Z,83.80
2022-09-15T05:56:56.547Z,83.43
2022-09-15T05:59:28.675Z,83.15
2022-09-15T06:02:00.787Z,82.89
2022-09-15T06:04:34.135Z,83.05
2022-09-15T06:07:05.984Z,83.23
2022-09-15T06:09:38.388Z,83.11
2022-09-15T06:12:10.371Z,83.01
2022-09-15T06:14:44.509Z,82.76
2022-09-15T06:17:20.062Z,82.54
2022-09-15T06:19:52.060Z,82.45
2022-09-15T06:22:24.295Z,82.60
2022-09-15T06:24:56.229Z,82.66
2022-09-15T06:27:28.140Z,82.59
2022-09-15T06:30:00.075Z,82.14
2022-09-15T06:32:32.048Z,82.00
2022-09-15T06:35:07.171Z,81.54
2022-09-15T06:37:39.015Z,81.57
2022-09-15T06:40:11.505Z,81.47
2022-09-15T06:42:43.791Z,81.17
2022-09-15T06:45:16.480Z,81.00
2022-09-15T06:48:02.077Z,80.38
2022-09-15T06:50:40.187Z,79.97
2022-09-15T06:53:12.027Z,80.01
2022-09-15T06:55:44.065Z,79.77
2022-09-15T06:58:15.948Z,79.50
2022-09-15T07:00:47.989Z,79.56
2022-09-15T07:03:20.042Z,79.31
2022-09-15T07:05:52.087Z,79.36
2022-09-15T07:08:24.154Z,79.29
2022-09-15T07:10:56.454Z,79.25
2022-09-15T07:13:28.718Z,78.97
2022-09-15T07:16:03.721Z,78.25
2022-09-15T07:18:40.938Z,78.36
2022-09-15T07:21:20.398Z,78.02
2022-09-15T07:23:52.935Z,77.86
2022-09-15T07:26:28.283Z,78.08
2022-09-15T07:29:06.282Z,77.46
2022-09-15T07:31:39.156Z,77.71
2022-09-15T07:34:11.175Z,77.94
2022-09-15T07:36:43.008Z,77.63
2022-09-15T07:39:14.829Z,77.15
2022-09-15T07:41:46.837Z,76.92
2022-09-15T07:44:18.766Z,76.26
2022-09-15T07:46:50.743Z,75.83
2022-09-15T07:49:22.694Z,75.45
2022-09-15T07:51:54.585Z,75.03
2022-09-15T07:54:26.461Z,75.26
2022-09-15T07:56:58.349Z,75.23
2022-09-15T07:59:30.978Z,75.46
2022-09-15T08:02:02.930Z,75.51
2022-09-15T08:04:34.963Z,76.07
2022-09-15T08:07:06.825Z,75.25
2022-09-15T08:09:39.954Z,74.88
2022-09-15T08:12:12.278Z,73.83
2022-09-15T08:14:44.242Z,73.96
2022-09-15T08:17:16.134Z,73.14
2022-09-15T08:19:47.968Z,73.54
2022-09-15T08:22:19.885Z,73.46
2022-09-15T08:24:52.002Z,73.18
2022-09-15T08:27:23.943Z,72.69
2022-09-15T08:29:55.806Z,72.61
2022-09-15T08:32:27.676Z,72.46
2022-09-15T08:34:59.507Z,71.89
2022-09-15T08:37:31.467Z,71.43
2022-09-15T08:40:03.632Z,70.93
2022-09-15T08:42:35.733Z,70.97
2022-09-15T08:45:20.783Z,68.55
2022-09-15T08:47:58.596Z,69.37
2022-09-15T08:50:42.081Z,68.00
2022-09-15T08:53:36.034Z,66.77
2022-09-15T08:56:17.171Z,67.17
2022-09-15T08:58:49.080Z,67.94
2022-09-15T09:01:37.836Z,66.72
2022-09-15T09:04:31.398Z,65.81
2022-09-15T09:07:17.898Z,65.76
2022-09-15T09:09:57.400Z,65.92
2022-09-15T09:12:47.184Z,64.76
2022-09-15T09:15:47.557Z,64.20
2022-09-15T09:18:53.146Z,64.29
2022-09-15T09:21:31.880Z,65.03
2022-09-15T09:24:13.104Z,63.68
2022-09-15T09:26:49.562Z,63.92
2022-09-15T09:29:33.466Z,62.04
2022-09-15T09:32:17.662Z,60.70
2022-09-15T09:34:56.133Z,61.98
2022-09-15T09:37:28.302Z,62.69
2022-09-15T09:40:00.658Z,62.88
2022-09-15T09:42:37.036Z,62.44
2022-09-15T09:45:12.796Z,63.24
2022-09-15T09:47:46.198Z,63.74
2022-09-15T09:50:43.076Z,63.72
2022-09-15T09:53:26.246Z,64.47
2022-09-15T09:56:22.710Z,64.85
2022-09-15T09:58:54.699Z,65.66
2022-09-15T10:01:26.673Z,65.57
2022-09-15T10:04:19.160Z,65.37
2022-09-15T10:06:51.065Z,65.81
2022-09-15T10:09:23.026Z,65.74
2022-09-15T10:11:59.054Z,65.65
2022-09-15T10:14:41.577Z,65.97
2022-09-15T10:17:18.703Z,66.00
2022-09-15T10:19:52.763Z,66.10
2022-09-15T10:22:30.183Z,66.49
2022-09-15T10:25:12.087Z,66.44
2022-09-15T10:27:43.982Z,66.34
2022-09-15T10:30:19.076Z,66.66
2022-09-15T10:32:51.439Z,66.04
2022-09-15T10:35:23.212Z,65.59
2022-09-15T10:38:12.811Z,60.33
2022-09-15T10:41:01.184Z,61.51
2022-09-15T10:43:50.741Z,59.92
2022-09-15T10:46:27.350Z,61.93
2022-09-15T10:49:22.090Z,60.82
2022-09-15T10:52:16.033Z,61.18
2022-09-15T10:55:02.911Z,59.47
2022-09-15T10:58:00.675Z,59.82
2022-09-15T11:00:43.801Z,58.64
2022-09-15T11:03:30.949Z,57.70
2022-09-15T11:06:26.613Z,58.22
2022-09-15T11:09:13.375Z,56.73
2022-09-15T11:12:17.319Z,54.67
2022-09-15T11:15:15.191Z,54.62
2022-09-15T11:18:10.406Z,53.26
2022-09-15T11:21:19.430Z,52.38
2022-09-15T11:24:31.685Z,53.06
2022-09-15T11:27:12.662Z,52.74
2022-09-15T11:30:02.739Z,51.90
2022-09-15T11:32:59.184Z,50.18
2022-09-15T11:35:49.161Z,50.52
2022-09-15T11:38:27.085Z,52.35
2022-09-15T11:41:24.982Z,52.75
2022-09-15T11:44:16.076Z,53.57
2022-09-15T11:47:02.235Z,53.75
2022-09-15T11:49:40.017Z,53.71
2022-09-15T11:52:24.462Z,51.60
2022-09-15T11:55:12.942Z,49.43
2022-09-15T11:57:48.947Z,50.54
2022-09-15T12:00:21.150Z,49.30
2022-09-15T12:03:17.838Z,44.15
2022-09-15T12:05:54.673Z,44.65
2022-09-15T12:08:33.920Z,41.85
2022-09-15T12:11:12.903Z,41.06
2022-09-15T12:13:45.560Z,43.95
2022-09-15T12:16:17.645Z,44.50
2022-09-15T12:18:54.823Z,44.69
2022-09-15T12:21:55.587Z,44.58
2022-09-15T12:24:39.398Z,44.55
2022-09-15T12:27:16.635Z,45.17
2022-09-15T12:29:56.454Z,46.50
2022-09-15T12:32:35.061Z,47.25
2022-09-15T12:35:16.411Z,47.96
2022-09-15T12:37:56.126Z,48.56
2022-09-15T12:40:33.047Z,48.71
2022-09-15T12:43:10.931Z,48.70
2022-09-15T12:45:52.641Z,48.54
2022-09-15T12:48:28.172Z,48.12
2022-09-15T12:51:02.358Z,47.45
2022-09-15T12:53:37.886Z,46.34
2022-09-15T12:56:22.013Z,44.50
2022-09-15T12:58:54.756Z,45.01
2022-09-15T13:01:26.455Z,43.27
2022-09-15T13:03:58.913Z,41.00
2022-09-15T13:06:35.704Z,39.98
2022-09-15T13:09:26.618Z,38.90
2022-09-15T13:11:59.595Z,38.69
2022-09-15T13:14:38.296Z,38.83
2022-09-15T13:17:16.642Z,39.37
2022-09-15T13:19:51.649Z,39.72
2022-09-15T13:22:30.240Z,39.85
2022-09-15T13:25:14.688Z,40.12
2022-09-15T13:27:54.375Z,40.96
2022-09-15T13:30:36.003Z,41.95
2022-09-15T13:40:16.679Z,49.48
2022-09-15T13:43:07.210Z,52.49
2022-09-15T13:46:15.278Z,54.07
2022-09-15T13:48:55.356Z,53.02
2022-09-15T13:51:28.950Z,53.45
2022-09-15T13:54:06.570Z,55.12
2022-09-15T13:56:39.575Z,55.18
2022-09-15T13:59:17.425Z,56.43
2022-09-15T14:01:50.437Z,55.67
2022-09-15T14:04:24.448Z,55.42
2022-09-15T14:07:00.973Z,55.80
2022-09-15T14:09:41.934Z,55.55
2022-09-15T14:12:15.153Z,55.04
2022-09-15T14:14:51.496Z,53.87
2022-09-15T14:17:26.045Z,54.02
2022-09-15T14:20:00.171Z,54.08
2022-09-15T14:22:33.975Z,53.74
2022-09-15T14:25:08.716Z,53.52
2022-09-15T14:27:44.847Z,53.71
2022-09-15T14:30:25.576Z,54.41
2022-09-15T14:33:01.369Z,53.31
2022-09-15T14:35:36.253Z,53.32
2022-09-15T14:38:21.654Z,53.04
2022-09-15T14:40:56.822Z,52.87
2022-09-15T14:43:39.455Z,51.71
2022-09-15T14:46:12.043Z,52.79
2022-09-15T14:48:46.944Z,52.34
2022-09-15T14:51:21.880Z,52.74
2022-09-15T14:53:55.849Z,51.73
2022-09-15T14:56:32.641Z,51.22
2022-09-15T14:59:07.981Z,49.70
2022-09-15T15:01:43.023Z,50.58
2022-09-15T15:04:39.198Z,52.85
2022-09-15T15:07:22.697Z,54.81
2022-09-15T15:10:02.516Z,54.48
2022-09-15T15:12:42.412Z,54.59
2022-09-15T15:15:16.293Z,54.59
2022-09-15T15:17:50.992Z,54.84
2022-09-15T15:20:26.979Z,56.23
2022-09-15T15:23:22.533Z,56.75
2022-09-15T15:26:24.562Z,57.40
2022-09-15T15:28:56.858Z,56.71
2022-09-15T15:31:29.530Z,57.00
2022-09-15T15:34:06.695Z,57.55
2022-09-15T15:36:38.560Z,57.33
2022-09-15T15:39:24.848Z,58.19
2022-09-15T15:42:05.139Z,58.87
2022-09-15T15:44:37.026Z,58.84
2022-09-15T15:47:31.031Z,60.25
2022-09-15T15:50:14.810Z,60.23
2022-09-15T15:52:48.663Z,59.47
2022-09-15T15:55:26.733Z,60.04
2022-09-15T15:57:59.020Z,59.67
2022-09-15T16:00:44.161Z,61.10
2022-09-15T16:03:17.174Z,60.76
2022-09-15T16:05:52.228Z,61.42
2022-09-15T16:08:28.337Z,61.54
2022-09-15T16:11:02.146Z,62.38
2022-09-15T16:13:34.495Z,62.40
2022-09-15T16:16:20.453Z,64.30
2022-09-15T16:18:53.021Z,63.36
2022-09-15T16:21:36.699Z,63.86
2022-09-15T16:24:15.581Z,64.94
2022-09-15T16:26:50.626Z,64.14
2022-09-15T16:29:29.887Z,64.38
2022-09-15T16:32:03.172Z,64.79
2022-09-15T16:34:35.174Z,64.84
2022-09-15T16:37:08.585Z,65.14
2022-09-15T16:39:52.094Z,65.37
2022-09-15T16:42:24.300Z,65.53
2022-09-15T16:44:56.566Z,65.73
2022-09-15T16:47:28.458Z,65.73
2022-09-15T16:50:00.352Z,65.92
2022-09-15T16:52:32.375Z,65.84
2022-09-15T16:55:20.346Z,66.12
2022-09-15T16:57:52.330Z,65.79
2022-09-15T17:00:24.418Z,65.45
2022-09-15T17:02:57.301Z,65.53
2022-09-15T17:05:39.079Z,65.48
2022-09-15T17:08:12.251Z,65.24
2022-09-15T17:10:44.506Z,65.23
2022-09-15T17:13:23.961Z,65.41
2022-09-15T17:16:00.232Z,65.07
2022-09-15T17:18:32.420Z,65.06
2022-09-15T17:21:04.970Z,65.16
2022-09-15T17:23:38.771Z,65.21
2022-09-15T17:26:13.863Z,65.35
2022-09-15T17:28:45.846Z,65.28
2022-09-15T17:31:20.897Z,65.43
2022-09-15T17:33:53.155Z,65.55
2022-09-15T17:36:25.321Z,65.55
2022-09-15T17:38:57.573Z,65.37
2022-09-15T17:41:30.536Z,65.51
2022-09-15T17:44:02.768Z,65.35
2022-09-15T17:46:35.097Z,65.11
2022-09-15T17:49:07.034Z,65.01
2022-09-15T17:51:39.325Z,64.99
2022-09-15T17:54:11.548Z,64.68
2022-09-15T17:56:43.761Z,64.81
2022-09-15T17:59:16.345Z,64.83
2022-09-15T18:01:48.729Z,64.86
2022-09-15T18:04:20.713Z,64.99
2022-09-15T18:06:54.004Z,64.85
2022-09-15T18:09:26.054Z,64.90
2022-09-15T18:11:58.234Z,64.64
2022-09-15T18:14:31.217Z,64.72
2022-09-15T18:17:03.170Z,64.82
2022-09-15T18:19:35.335Z,64.82
2022-09-15T18:22:07.546Z,64.78
2022-09-15T18:24:39.746Z,65.15
2022-09-15T18:27:11.859Z,64.93
2022-09-15T18:29:44.257Z,64.93
2022-09-15T18:32:16.387Z,64.92
2022-09-15T18:34:49.082Z,64.95
2022-09-15T18:37:21.367Z,65.23
2022-09-15T18:39:53.384Z,65.46
2022-09-15T18:42:28.450Z,65.50
2022-09-15T18:45:09.348Z,65.73
2022-09-15T18:47:42.562Z,65.91
2022-09-15T18:50:15.609Z,66.05
2022-09-15T18:52:47.918Z,66.29
2022-09-15T18:55:22.064Z,66.76
2022-09-15T18:57:53.963Z,67.09
2022-09-15T19:00:28.678Z,67.40
2022-09-15T19:03:02.550Z,67.72
2022-09-15T19:05:34.453Z,68.13
2022-09-15T19:08:08.499Z,68.23
2022-09-15T19:10:43.846Z,68.85
2022-09-15T19:13:16.030Z,70.32
2022-09-15T19:15:50.302Z,71.35
2022-09-15T19:18:24.837Z,71.96
2022-09-15T19:21:04.987Z,74.78
2022-09-15T19:23:37.033Z,73.93
2022-09-15T19:26:13.651Z,74.57
2022-09-15T19:28:46.215Z,75.13
2022-09-15T19:31:18.330Z,75.47
2022-09-15T19:33:50.196Z,75.32
2022-09-15T19:36:29.531Z,74.85
2022-09-15T19:39:03.384Z,74.93
2022-09-15T19:41:35.523Z,74.95
2022-09-15T19:44:10.590Z,74.75
2022-09-15T19:46:43.060Z,75.05
2022-09-15T19:49:15.006Z,74.66
2022-09-15T19:51:52.881Z,74.84
2022-09-15T19:54:29.088Z,75.38
2022-09-15T19:57:01.918Z,75.30
2022-09-15T19:59:34.007Z,75.61
2022-09-15T20:02:06.055Z,75.85
2022-09-15T20:04:39.016Z,76.07
2022-09-15T20:07:11.070Z,76.48
2022-09-15T20:09:43.101Z,76.37
2022-09-15T20:12:15.183Z,76.49
2022-09-15T20:14:47.163Z,76.89
2022-09-15T20:17:19.256Z,77.02
2022-09-15T20:19:51.315Z,77.10
2022-09-15T20:22:23.660Z,77.23
2022-09-15T20:24:56.130Z,77.04
2022-09-15T20:27:28.135Z,76.92
2022-09-15T20:30:00.039Z,77.19
2022-09-15T20:32:33.960Z,77.32
2022-09-15T20:35:06.076Z,77.34
2022-09-15T20:37:37.987Z,77.43
2022-09-15T20:40:10.027Z,77.48
2022-09-15T20:42:42.538Z,77.64
2022-09-15T20:45:15.346Z,77.98
2022-09-15T20:47:47.304Z,78.27
2022-09-15T20:50:19.276Z,78.40
2022-09-15T20:52:51.145Z,78.53
2022-09-15T20:55:25.506Z,78.76
2022-09-15T20:57:57.399Z,79.32
2022-09-15T21:00:33.211Z,79.07
2022-09-15T21:03:05.934Z,79.41
2022-09-15T21:05:37.859Z,79.70
2022-09-15T21:08:11.049Z,79.70
2022-09-15T21:10:44.788Z,79.97
2022-09-15T21:13:16.599Z,79.85
2022-09-15T21:15:59.520Z,80.66
2022-09-15T21:18:35.635Z,79.94
2022-09-15T21:21:07.827Z,80.33
2022-09-15T21:23:42.031Z,81.10
2022-09-15T21:26:16.144Z,81.60
2022-09-15T21:28:48.726Z,82.08
2022-09-15T21:31:26.251Z,83.26
2022-09-15T21:33:58.759Z,82.97
2022-09-15T21:36:31.668Z,83.49
2022-09-15T21:39:03.568Z,84.09
2022-09-15T21:41:35.931Z,84.08
2022-09-15T21:44:09.358Z,84.69
2022-09-15T21:46:41.181Z,85.24
2022-09-15T21:49:13.146Z,85.22
2022-09-15T21:51:45.328Z,85.73
2022-09-15T21:54:18.403Z,85.78
2022-09-15T21:56:50.610Z,85.82
2022-09-15T21:59:22.498Z,85.68
2022-09-15T22:01:54.414Z,85.73
2022-09-15T22:04:26.319Z,85.67
2022-09-15T22:06:58.185Z,85.54
2022-09-15T22:09:30.202Z,85.34
2022-09-15T22:12:02.162Z,85.46
2022-09-15T22:14:34.045Z,85.76
2022-09-15T22:17:05.997Z,85.57
2022-09-15T22:19:38.062Z,85.67
2022-09-15T22:22:10.025Z,85.55
2022-09-15T22:24:41.943Z,85.36
2022-09-15T22:27:13.799Z,85.35
2022-09-15T22:29:45.669Z,85.53
2022-09-15T22:32:17.581Z,85.54
2022-09-15T22:34:49.528Z,85.76
2022-09-15T22:37:21.421Z,86.02
2022-09-15T22:40:01.348Z,85.86
2022-09-15T22:42:33.323Z,85.74
2022-09-15T22:45:07.430Z,85.96
2022-09-15T22:47:39.588Z,85.87
2022-09-15T22:50:12.010Z,85.63
2022-09-15T22:52:44.047Z,85.70
2022-09-15T22:55:16.500Z,85.53
2022-09-15T22:57:48.936Z,85.25
2022-09-15T23:00:21.087Z,85.37
2022-09-15T23:02:53.058Z,84.91
2022-09-15T23:05:25.404Z,84.93
2022-09-15T23:07:57.404Z,84.62
2022-09-15T23:10:30.558Z,84.85
2022-09-15T23:13:02.395Z,84.79
2022-09-15T23:15:34.417Z,84.80
2022-09-15T23:18:06.383Z,84.85
2022-09-15T23:20:39.775Z,84.99
2022-09-15T23:23:11.734Z,85.27
2022-09-15T23:25:43.633Z,84.98
2022-09-15T23:28:15.476Z,85.17
2022-09-15T23:30:54.498Z,85.27
2022-09-15T23:33:28.847Z,85.30
2022-09-15T23:36:05.552Z,85.58
2022-09-15T23:38:41.683Z,85.50
2022-09-15T23:41:15.166Z,85.67
2022-09-15T23:43:47.354Z,85.65
2022-09-15T23:46:19.233Z,85.76
2022-09-15T23:48:51.209Z,85.82
2022-09-15T23:51:23.336Z,85.79
2022-09-15T23:53:55.286Z,85.89
2022-09-15T23:56:27.324Z,86.03
2022-09-15T23:58:59.371Z,85.91
